Time;durP1;ratioP1;P1;durP2;ratioP2;P2;SDS_P1;SDS_P2;PMS_P1;PMS_P2;Temp;Humidity;BMP_temperature;BMP_pressure;BME280_temperature;BME280_humidity;BME280_pressure;Samples;Min_cycle;Max_cycle;Signal;HPM_P1;HPM_P2
2022/01/18 00:00:45;;;;;;;11.00;6.15;;;8.60;85.90;;;;;;4996884;28;20756;-74
2022/01/18 00:03:11;;;;;;;9.23;5.72;;;8.60;85.70;;;;;;4998777;28;20054;-74
2022/01/18 00:05:38;;;;;;;10.48;5.95;;;8.60;86.10;;;;;;4998670;28;20034;-74
2022/01/18 00:08:05;;;;;;;9.63;6.60;;;8.60;86.00;;;;;;4999935;28;20108;-76
2022/01/18 00:10:32;;;;;;;9.75;5.93;;;8.60;86.00;;;;;;4999983;28;20165;-75
2022/01/18 00:18:08;;;;;;;11.27;6.55;;;8.80;86.00;;;;;;5011109;28;20037;-75
2022/01/18 00:23:05;;;;;;;9.63;6.07;;;8.80;86.10;;;;;;4997169;28;20112;-74
2022/01/18 00:25:34;;;;;;;10.15;6.28;;;8.80;85.60;;;;;;4996888;28;20077;-75
2022/01/18 00:28:00;;;;;;;8.27;5.45;;;8.80;86.30;;;;;;4995899;28;20028;-74
2022/01/18 00:31:10;;;;;;;9.07;5.72;;;8.80;85.60;;;;;;4994511;28;20169;-74
2022/01/18 00:35:42;;;;;;;9.95;6.30;;;8.80;85.40;;;;;;4997543;28;20566;-75
2022/01/18 00:41:00;;;;;;;10.35;6.45;;;8.80;85.00;;;;;;4960888;28;20134;-74
2022/01/18 00:43:26;;;;;;;11.52;6.95;;;8.80;84.70;;;;;;4957005;28;20256;-74
2022/01/18 00:45:51;;;;;;;11.95;7.15;;;8.70;85.00;;;;;;4968204;28;20424;-74
2022/01/18 00:48:17;;;;;;;10.32;6.15;;;8.70;85.00;;;;;;4952074;28;20477;-74
2022/01/18 00:50:45;;;;;;;11.02;6.53;;;8.80;85.10;;;;;;4961437;28;20031;-73
2022/01/18 00:53:15;;;;;;;11.05;6.63;;;8.80;85.00;;;;;;4946440;28;20660;-74
2022/01/18 00:56:03;;;;;;;10.85;6.93;;;8.80;85.10;;;;;;4969782;28;20031;-75
2022/01/18 00:58:29;;;;;;;12.45;7.63;;;8.80;85.30;;;;;;4960776;28;20043;-75
2022/01/18 01:00:54;;;;;;;12.68;7.38;;;8.90;85.30;;;;;;4956440;28;20145;-75
2022/01/18 01:03:20;;;;;;;10.77;6.75;;;8.90;85.10;;;;;;4940907;29;20115;-74
2022/01/18 01:05:45;;;;;;;8.20;5.75;;;8.90;85.00;;;;;;4966887;28;20081;-73
2022/01/18 01:08:11;;;;;;;9.25;5.93;;;8.90;85.00;;;;;;4965401;28;20137;-73
2022/01/18 01:10:37;;;;;;;9.85;6.25;;;8.90;85.80;;;;;;4960451;28;20516;-74
2022/01/18 01:13:03;;;;;;;10.25;6.43;;;8.80;84.60;;;;;;4957409;28;20532;-74
2022/01/18 01:15:32;;;;;;;10.68;6.30;;;8.80;84.70;;;;;;4955778;28;20086;-74
2022/01/18 01:34:42;;;;;;;9.77;6.20;;;8.80;84.90;;;;;;4995680;28;20029;-73
2022/01/18 01:41:41;;;;;;;11.13;6.25;;;8.80;85.00;;;;;;4995342;28;20143;-74
2022/01/18 01:43:09;;;;;;;9.75;5.95;;;8.80;84.80;;;;;;4995767;28;20519;-74
2022/01/18 01:45:36;;;;;;;10.15;5.95;;;8.70;84.90;;;;;;4995519;28;20483;-74
2022/01/18 01:48:02;;;;;;;11.70;6.60;;;8.70;84.70;;;;;;4994989;28;20038;-74
2022/01/18 01:50:42;;;;;;;9.05;5.53;;;8.70;84.90;;;;;;4995495;28;20121;-73
2022/01/18 01:53:08;;;;;;;9.73;6.05;;;8.70;84.80;;;;;;4995372;28;20531;-73
2022/01/18 01:55:34;;;;;;;10.13;6.40;;;8.80;85.10;;;;;;4995299;28;20125;-74
2022/01/18 01:57:59;;;;;;;9.88;6.10;;;8.80;84.70;;;;;;4993840;28;20030;-73
2022/01/18 02:00:25;;;;;;;11.10;6.72;;;8.70;84.60;;;;;;5010983;28;20028;-73
2022/01/18 02:02:51;;;;;;;10.85;6.47;;;8.80;84.90;;;;;;4995280;28;20053;-74
2022/01/18 02:05:16;;;;;;;10.57;6.80;;;8.80;84.50;;;;;;4995277;28;20406;-73
2022/01/18 02:07:42;;;;;;;10.15;6.28;;;8.80;84.50;;;;;;4995237;28;20038;-73
2022/01/18 02:10:10;;;;;;;10.45;6.93;;;8.80;84.70;;;;;;4995426;28;20045;-73
2022/01/18 02:12:36;;;;;;;11.48;6.90;;;8.80;84.60;;;;;;4992629;28;20027;-73
2022/01/18 02:15:11;;;;;;;10.20;6.55;;;8.80;84.00;;;;;;4994504;28;20034;-73
2022/01/18 02:23:16;;;;;;;10.75;6.97;;;8.90;84.20;;;;;;4995288;28;20053;-73
2022/01/18 02:25:42;;;;;;;10.00;6.55;;;8.90;84.00;;;;;;4994903;28;20065;-74
2022/01/18 02:28:08;;;;;;;10.52;6.53;;;8.80;83.90;;;;;;4994841;28;20046;-74
2022/01/18 02:30:34;;;;;;;11.18;7.00;;;8.80;83.80;;;;;;5009850;28;20026;-73
2022/01/18 02:32:59;;;;;;;10.40;6.82;;;8.70;83.70;;;;;;4993292;28;20026;-74
2022/01/18 02:35:25;;;;;;;12.55;7.07;;;8.70;84.00;;;;;;4993969;28;20082;-74
2022/01/18 02:37:54;;;;;;;10.15;6.25;;;8.80;84.30;;;;;;4994630;28;20114;-73
2022/01/18 02:40:20;;;;;;;12.30;7.45;;;8.80;84.20;;;;;;4995032;28;20444;-73
2022/01/18 02:42:56;;;;;;;11.00;6.65;;;8.70;83.20;;;;;;4992062;28;20116;-73
2022/01/18 02:45:22;;;;;;;11.00;7.03;;;8.50;83.70;;;;;;4995523;28;20323;-73
2022/01/18 02:47:48;;;;;;;12.45;7.68;;;8.60;83.60;;;;;;4995927;28;20504;-74
2022/01/18 02:50:14;;;;;;;12.23;7.78;;;8.60;83.90;;;;;;4997343;28;20030;-74
2022/01/18 02:52:40;;;;;;;11.98;6.93;;;8.50;83.60;;;;;;5001153;28;20032;-74
2022/01/18 02:55:06;;;;;;;13.55;7.90;;;8.60;83.90;;;;;;4997963;28;20046;-74
2022/01/18 02:57:41;;;;;;;13.20;7.30;;;8.50;83.70;;;;;;4998474;28;20027;-74
2022/01/18 03:00:18;;;;;;;12.43;7.18;;;8.50;84.00;;;;;;5000019;28;20038;-73
2022/01/18 03:05:28;;;;;;;13.10;7.32;;;8.50;83.70;;;;;;5001178;28;20037;-74
2022/01/18 03:07:54;;;;;;;12.20;7.18;;;8.50;83.50;;;;;;5001134;28;20027;-74
2022/01/18 03:10:19;;;;;;;13.27;6.68;;;8.50;83.40;;;;;;5000221;28;20029;-74
2022/01/18 03:12:45;;;;;;;11.13;6.22;;;8.50;83.70;;;;;;4997023;28;20032;-74
2022/01/18 03:15:11;;;;;;;9.85;6.20;;;8.50;83.90;;;;;;4998792;28;20117;-74
2022/01/18 03:17:37;;;;;;;11.40;6.93;;;8.60;83.80;;;;;;5000745;28;20087;-74
2022/01/18 03:20:05;;;;;;;10.50;6.50;;;8.50;83.50;;;;;;5000386;28;20500;-73
2022/01/18 03:22:31;;;;;;;13.43;7.68;;;8.60;83.80;;;;;;5000983;28;20030;-73
2022/01/18 03:25:14;;;;;;;11.40;7.10;;;8.60;83.50;;;;;;4996551;28;20500;-75
2022/01/18 03:30:24;;;;;;;13.43;7.68;;;8.50;83.50;;;;;;5011417;28;20113;-73
2022/01/18 03:32:50;;;;;;;11.88;7.28;;;8.40;82.90;;;;;;4997604;28;20109;-73
2022/01/18 03:35:15;;;;;;;12.80;7.40;;;8.40;83.30;;;;;;4996165;28;20084;-73
2022/01/18 03:37:42;;;;;;;11.60;6.78;;;8.40;83.20;;;;;;4997850;28;20034;-73
2022/01/18 03:40:09;;;;;;;13.20;7.45;;;8.30;83.00;;;;;;4996208;28;20054;-74
2022/01/18 03:42:48;;;;;;;12.13;7.07;;;8.30;83.20;;;;;;5013736;28;20026;-73
2022/01/18 03:45:23;;;;;;;12.65;7.07;;;8.30;83.80;;;;;;4998851;28;20027;-73
2022/01/18 03:47:50;;;;;;;11.05;7.00;;;8.30;82.50;;;;;;5000459;28;20069;-73
2022/01/18 03:50:16;;;;;;;11.23;6.95;;;8.30;83.20;;;;;;5000058;28;20392;-74
2022/01/18 03:52:43;;;;;;;10.05;6.28;;;8.30;83.20;;;;;;4999909;28;20053;-74
2022/01/18 03:55:11;;;;;;;10.60;6.05;;;8.40;83.40;;;;;;4997352;28;20130;-74
2022/01/18 03:57:37;;;;;;;11.52;6.57;;;8.40;83.00;;;;;;4997911;28;20030;-74
2022/01/18 04:00:09;;;;;;;12.73;7.13;;;8.40;82.90;;;;;;4999273;28;20046;-74
2022/01/18 04:02:35;;;;;;;9.85;6.15;;;8.40;82.40;;;;;;4999922;28;20037;-74
2022/01/18 04:05:02;;;;;;;12.40;6.50;;;8.30;82.40;;;;;;5000071;28;20027;-74
2022/01/18 04:07:27;;;;;;;10.00;6.00;;;8.30;82.70;;;;;;5000078;28;20049;-74
2022/01/18 04:09:53;;;;;;;9.98;6.28;;;8.40;82.60;;;;;;4995338;28;20107;-74
2022/01/18 04:12:18;;;;;;;11.15;6.53;;;8.30;82.20;;;;;;4999158;28;20037;-74
2022/01/18 04:14:44;;;;;;;11.07;6.57;;;8.30;82.40;;;;;;4998601;28;20057;-74
2022/01/18 04:27:45;;;;;;;8.07;5.47;;;8.20;82.20;;;;;;5010844;28;20071;-74
2022/01/18 04:30:11;;;;;;;10.13;6.35;;;8.10;82.40;;;;;;5012729;28;20476;-74
2022/01/18 04:32:36;;;;;;;10.60;5.63;;;8.10;82.40;;;;;;4998307;28;20038;-74
2022/01/18 04:35:02;;;;;;;11.30;6.15;;;8.10;82.00;;;;;;4996758;28;20050;-75
2022/01/18 04:37:28;;;;;;;8.93;5.75;;;8.00;82.20;;;;;;4997027;28;20031;-75
2022/01/18 04:39:54;;;;;;;9.13;5.50;;;8.00;82.40;;;;;;4996617;28;20022;-75
2022/01/18 04:42:38;;;;;;;10.35;5.88;;;8.00;82.60;;;;;;4994170;28;20109;-75
2022/01/18 04:50:33;;;;;;;8.63;5.32;;;8.00;82.80;;;;;;4999086;28;20041;-75
2022/01/18 04:52:58;;;;;;;9.45;5.60;;;8.00;82.60;;;;;;4998962;28;20022;-75
2022/01/18 04:55:30;;;;;;;9.07;5.72;;;8.00;82.40;;;;;;4998360;28;20041;-75
2022/01/18 04:57:56;;;;;;;9.93;5.78;;;7.90;82.50;;;;;;4996550;28;20054;-74
2022/01/18 05:00:23;;;;;;;8.45;5.43;;;8.00;82.60;;;;;;4993951;28;20070;-75
2022/01/18 05:02:49;;;;;;;8.40;5.50;;;7.90;83.20;;;;;;4999781;28;20030;-75
2022/01/18 05:05:28;;;;;;;8.27;5.40;;;7.90;82.40;;;;;;4999071;28;20061;-75
2022/01/18 05:08:02;;;;;;;9.55;5.32;;;7.90;82.30;;;;;;4998405;28;20018;-75
2022/01/18 05:10:29;;;;;;;8.80;5.28;;;7.80;82.10;;;;;;4998816;28;20499;-75
2022/01/18 05:12:57;;;;;;;7.93;4.93;;;7.80;82.10;;;;;;4994228;28;20494;-75
2022/01/18 05:20:54;;;;;;;7.97;5.07;;;7.60;82.40;;;;;;4996021;28;20166;-75
2022/01/18 05:23:20;;;;;;;7.30;4.90;;;7.60;82.60;;;;;;4995601;28;20068;-75
2022/01/18 05:25:46;;;;;;;9.43;5.43;;;7.60;82.40;;;;;;4995677;28;20034;-74
2022/01/18 05:28:13;;;;;;;8.50;4.90;;;7.50;82.50;;;;;;4995978;28;20029;-76
2022/01/18 05:30:40;;;;;;;9.07;5.50;;;7.50;82.50;;;;;;4993911;28;20493;-76
2022/01/18 05:33:07;;;;;;;8.90;5.50;;;7.50;82.50;;;;;;4997362;28;20062;-74
2022/01/18 05:35:33;;;;;;;9.98;5.53;;;7.40;82.50;;;;;;4997916;28;20054;-74
2022/01/18 05:37:59;;;;;;;9.30;5.40;;;7.40;82.60;;;;;;4995406;28;20060;-75
2022/01/18 05:40:26;;;;;;;9.85;5.70;;;7.30;82.40;;;;;;4998021;28;20627;-75
2022/01/18 05:42:51;;;;;;;10.90;5.40;;;7.30;82.80;;;;;;4993925;28;20030;-75
2022/01/18 05:45:18;;;;;;;8.70;5.50;;;7.30;82.70;;;;;;5004664;28;20030;-75
2022/01/18 05:47:43;;;;;;;8.90;5.68;;;7.30;82.70;;;;;;4995672;28;20030;-75
2022/01/18 05:50:11;;;;;;;9.70;5.55;;;7.20;82.70;;;;;;4997543;28;20045;-75
2022/01/18 05:52:37;;;;;;;9.35;5.28;;;7.20;82.80;;;;;;5007852;28;20057;-76
2022/01/18 05:55:04;;;;;;;11.43;5.93;;;7.20;83.00;;;;;;4995416;28;20042;-75
2022/01/18 05:57:30;;;;;;;7.72;5.03;;;7.20;83.10;;;;;;4995708;28;20035;-74
2022/01/18 06:00:02;;;;;;;10.13;5.47;;;7.20;83.10;;;;;;5009935;28;20080;-74
2022/01/18 06:02:41;;;;;;;8.50;5.30;;;7.20;83.20;;;;;;5001234;28;20113;-74
2022/01/18 06:07:53;;;;;;;10.80;6.35;;;7.30;83.10;;;;;;4998995;28;20113;-74
2022/01/18 06:10:19;;;;;;;9.90;5.53;;;7.30;83.30;;;;;;4997072;28;20100;-74
2022/01/18 06:12:45;;;;;;;9.48;5.38;;;7.30;83.40;;;;;;4996244;28;20038;-74
2022/01/18 06:15:10;;;;;;;9.43;5.72;;;7.40;83.60;;;;;;5000738;28;20126;-74
2022/01/18 06:17:36;;;;;;;10.88;6.13;;;7.40;83.30;;;;;;4999111;28;20082;-74
2022/01/18 06:20:03;;;;;;;10.13;5.57;;;7.40;83.10;;;;;;4998380;28;20491;-74
2022/01/18 06:22:28;;;;;;;10.38;5.85;;;7.40;83.00;;;;;;4998935;28;20122;-74
2022/01/18 06:24:54;;;;;;;10.52;5.85;;;7.40;83.10;;;;;;5000180;28;20042;-74
2022/01/18 06:27:19;;;;;;;10.65;6.28;;;7.40;83.00;;;;;;5002052;28;20519;-74
2022/01/18 06:29:45;;;;;;;10.10;5.95;;;7.40;83.10;;;;;;5004655;28;20084;-75
2022/01/18 06:32:12;;;;;;;12.15;6.03;;;7.40;83.10;;;;;;5006907;28;20041;-74
2022/01/18 06:34:37;;;;;;;10.18;5.85;;;7.30;83.10;;;;;;5004472;28;20042;-75
2022/01/18 06:37:03;;;;;;;11.02;6.32;;;7.30;83.00;;;;;;5002624;28;20033;-74
2022/01/18 06:39:29;;;;;;;10.90;6.75;;;7.20;83.00;;;;;;5016241;28;20152;-74
2022/01/18 06:41:55;;;;;;;11.80;6.55;;;7.20;83.30;;;;;;4999038;28;20389;-74
2022/01/18 06:44:22;;;;;;;13.90;6.82;;;7.10;83.20;;;;;;5003152;28;20025;-75
2022/01/18 06:46:48;;;;;;;15.35;6.65;;;7.10;83.60;;;;;;5007118;28;20463;-74
2022/01/18 06:49:13;;;;;;;13.52;6.85;;;7.10;83.90;;;;;;4998583;28;20056;-74
2022/01/18 06:51:39;;;;;;;11.30;6.70;;;7.00;83.90;;;;;;4997060;28;20396;-74
2022/01/18 06:54:05;;;;;;;12.73;7.97;;;6.90;83.40;;;;;;5013463;28;20037;-75
2022/01/18 06:56:30;;;;;;;12.40;6.90;;;6.90;84.10;;;;;;5003951;28;20031;-74
2022/01/18 06:58:56;;;;;;;13.43;7.50;;;6.90;84.30;;;;;;5001388;28;20089;-74
2022/01/18 07:01:22;;;;;;;14.43;7.45;;;6.90;84.40;;;;;;5000710;28;20069;-74
2022/01/18 07:03:48;;;;;;;14.85;7.20;;;6.90;84.50;;;;;;4997203;28;20042;-73
2022/01/18 07:06:17;;;;;;;16.73;7.82;;;6.80;84.10;;;;;;5000434;28;20080;-74
2022/01/18 07:08:42;;;;;;;14.57;8.02;;;6.80;84.60;;;;;;4999678;28;20121;-74
2022/01/18 07:11:08;;;;;;;14.55;7.28;;;6.80;84.90;;;;;;4999818;28;20033;-74
2022/01/18 07:13:35;;;;;;;14.05;7.53;;;6.90;85.20;;;;;;5004070;28;20533;-74
2022/01/18 07:16:01;;;;;;;16.50;8.00;;;6.90;84.90;;;;;;5010622;28;20054;-76
2022/01/18 07:18:27;;;;;;;15.00;8.07;;;6.90;84.80;;;;;;5014150;28;20030;-81
2022/01/18 07:20:53;;;;;;;14.38;8.50;;;6.80;84.70;;;;;;5000147;28;20439;-77
2022/01/18 07:23:19;;;;;;;15.48;8.30;;;6.80;84.90;;;;;;4999211;28;20018;-76
2022/01/18 07:25:47;;;;;;;14.98;8.20;;;6.90;85.50;;;;;;5001104;28;20125;-77
2022/01/18 07:28:15;;;;;;;16.50;8.25;;;6.90;85.50;;;;;;4998946;28;20018;-80
2022/01/18 07:30:41;;;;;;;13.50;8.13;;;6.90;85.50;;;;;;4998797;28;20030;-81
2022/01/18 07:33:07;;;;;;;15.13;8.25;;;7.00;85.50;;;;;;5013325;28;20492;-81
2022/01/18 07:35:34;;;;;;;14.35;7.50;;;7.00;85.40;;;;;;5003097;28;20052;-75
2022/01/18 07:38:04;;;;;;;15.82;8.50;;;7.10;85.00;;;;;;5000072;28;20022;-77
2022/01/18 07:40:32;;;;;;;15.27;8.02;;;7.00;84.70;;;;;;5000495;28;20034;-74
2022/01/18 07:43:01;;;;;;;15.65;7.88;;;7.10;85.30;;;;;;4996552;28;20014;-72
2022/01/18 07:45:28;;;;;;;14.38;7.93;;;7.20;85.10;;;;;;4998565;28;20105;-73
2022/01/18 07:47:53;;;;;;;16.48;9.00;;;7.20;84.90;;;;;;4999932;28;20105;-74
2022/01/18 07:50:19;;;;;;;17.63;8.65;;;7.20;84.70;;;;;;5000251;28;20057;-69
2022/01/18 07:52:45;;;;;;;17.40;8.40;;;7.20;84.50;;;;;;5000022;28;20560;-70
2022/01/18 07:55:11;;;;;;;17.10;9.52;;;7.20;84.90;;;;;;4996632;28;20113;-69
2022/01/18 07:57:41;;;;;;;19.35;9.88;;;7.10;84.50;;;;;;4997691;28;20091;-69
2022/01/18 08:00:11;;;;;;;17.35;9.45;;;7.10;84.70;;;;;;5011604;28;20030;-69
2022/01/18 08:02:37;;;;;;;16.70;8.75;;;7.10;84.70;;;;;;4998902;28;20022;-69
2022/01/18 08:05:07;;;;;;;20.88;11.27;;;7.00;84.60;;;;;;5003501;28;20555;-69
2022/01/18 08:07:34;;;;;;;17.20;9.05;;;7.00;84.70;;;;;;5006456;28;20030;-69
2022/01/18 08:10:00;;;;;;;19.10;10.10;;;7.00;85.00;;;;;;4997205;28;20027;-69
2022/01/18 08:12:26;;;;;;;20.00;10.57;;;7.00;84.80;;;;;;4993527;28;20384;-69
2022/01/18 08:14:55;;;;;;;19.23;10.27;;;7.00;85.30;;;;;;4996662;28;20041;-68
2022/01/18 08:17:22;;;;;;;19.92;10.60;;;7.00;84.80;;;;;;4996871;28;20022;-68
2022/01/18 08:19:48;;;;;;;18.73;9.50;;;7.00;86.00;;;;;;4996882;28;20026;-69
2022/01/18 08:22:14;;;;;;;21.05;10.13;;;7.00;84.90;;;;;;4996749;28;20076;-68
2022/01/18 08:24:41;;;;;;;21.00;10.52;;;7.00;86.00;;;;;;5010765;28;20030;-68
2022/01/18 08:27:07;;;;;;;19.05;9.73;;;7.00;85.10;;;;;;5013572;28;20567;-68
2022/01/18 08:29:34;;;;;;;18.23;9.27;;;7.00;84.80;;;;;;5005394;28;20038;-69
2022/01/18 08:32:00;;;;;;;20.23;9.95;;;7.10;85.40;;;;;;5008486;28;20125;-69
2022/01/18 08:34:26;;;;;;;18.15;9.75;;;7.20;85.00;;;;;;5002699;28;20579;-68
2022/01/18 08:36:51;;;;;;;17.45;8.90;;;7.20;85.20;;;;;;5007597;28;20381;-68
2022/01/18 08:39:18;;;;;;;16.17;8.32;;;7.30;85.10;;;;;;5004439;28;20503;-68
2022/01/18 08:41:44;;;;;;;19.30;9.82;;;7.40;85.00;;;;;;5005762;28;20495;-68
2022/01/18 08:44:09;;;;;;;17.63;9.45;;;7.50;85.30;;;;;;4981781;28;20496;-68
2022/01/18 08:46:35;;;;;;;19.60;9.57;;;7.50;84.40;;;;;;4996317;28;20057;-68
2022/01/18 08:49:04;;;;;;;18.65;9.68;;;7.50;84.50;;;;;;5009166;28;20504;-68
2022/01/18 08:51:29;;;;;;;17.75;9.05;;;7.50;84.50;;;;;;5000809;28;20727;-68
2022/01/18 08:53:55;;;;;;;18.20;8.70;;;7.50;83.80;;;;;;5008578;28;20112;-69
2022/01/18 08:56:21;;;;;;;16.30;8.82;;;7.50;84.00;;;;;;5000533;28;20436;-68
2022/01/18 08:58:48;;;;;;;17.67;8.75;;;7.50;84.00;;;;;;5001042;28;20034;-68
2022/01/18 09:01:15;;;;;;;16.45;8.57;;;7.50;84.20;;;;;;5010382;28;20072;-68
2022/01/18 09:03:40;;;;;;;19.35;8.82;;;7.50;84.20;;;;;;5001266;28;20093;-68
2022/01/18 09:06:07;;;;;;;14.70;7.97;;;7.50;83.90;;;;;;5006510;28;20156;-68
2022/01/18 09:08:36;;;;;;;16.88;8.70;;;7.60;84.30;;;;;;5002252;28;20084;-69
2022/01/18 09:11:03;;;;;;;16.85;8.38;;;7.60;83.90;;;;;;5003966;28;20034;-69
2022/01/18 09:13:31;;;;;;;17.73;8.57;;;7.70;83.90;;;;;;5010511;28;20036;-69
2022/01/18 09:15:57;;;;;;;17.00;8.45;;;7.70;83.70;;;;;;5001178;28;20408;-68
2022/01/18 09:18:22;;;;;;;16.67;8.15;;;7.70;84.00;;;;;;5006799;28;20217;-69
2022/01/18 09:20:48;;;;;;;15.75;7.97;;;7.70;83.80;;;;;;5008573;28;20030;-68
2022/01/18 09:23:14;;;;;;;19.02;8.80;;;7.80;83.40;;;;;;5004214;28;20515;-69
2022/01/18 09:25:40;;;;;;;16.48;8.35;;;7.70;83.10;;;;;;5008924;28;20026;-68
2022/01/18 09:28:06;;;;;;;16.20;8.68;;;7.70;83.60;;;;;;5000382;28;20072;-68
2022/01/18 09:30:34;;;;;;;15.02;7.95;;;7.70;83.40;;;;;;5005993;28;20452;-68
2022/01/18 09:33:01;;;;;;;17.88;8.98;;;7.70;83.50;;;;;;5001040;28;20025;-69
2022/01/18 09:35:27;;;;;;;17.20;8.68;;;7.70;84.10;;;;;;5004061;28;20041;-69
2022/01/18 09:37:53;;;;;;;18.13;9.60;;;7.80;83.80;;;;;;5007910;28;20221;-69
2022/01/18 09:40:20;;;;;;;17.25;9.13;;;7.90;84.00;;;;;;5001006;28;20489;-69
2022/01/18 09:42:58;;;;;;;18.60;9.80;;;7.90;83.10;;;;;;5007317;28;20044;-69
2022/01/18 09:45:26;;;;;;;16.27;8.65;;;7.90;83.50;;;;;;5008364;28;20029;-69
2022/01/18 09:47:54;;;;;;;18.08;8.93;;;8.00;83.60;;;;;;5010149;28;20049;-69
2022/01/18 09:50:29;;;;;;;15.50;8.32;;;8.10;83.30;;;;;;5004334;28;20023;-69
2022/01/18 09:52:56;;;;;;;14.73;7.78;;;8.00;82.50;;;;;;5002479;28;20035;-69
2022/01/18 09:55:24;;;;;;;15.50;8.70;;;8.00;83.20;;;;;;5010326;28;20040;-69
2022/01/18 09:57:51;;;;;;;17.17;8.30;;;8.00;82.60;;;;;;4999968;28;20037;-69
2022/01/18 10:00:18;;;;;;;16.48;8.10;;;8.00;82.80;;;;;;5005394;28;20080;-69
2022/01/18 10:02:44;;;;;;;17.30;9.07;;;8.00;82.80;;;;;;5000027;28;20035;-69
2022/01/18 10:05:17;;;;;;;16.83;8.52;;;8.00;82.60;;;;;;5003807;28;20026;-69
2022/01/18 10:07:42;;;;;;;17.10;9.43;;;8.00;82.30;;;;;;5009209;28;20496;-69
2022/01/18 10:10:09;;;;;;;15.18;8.25;;;7.90;82.00;;;;;;5008417;28;20026;-68
2022/01/18 10:12:34;;;;;;;18.83;9.63;;;7.80;82.50;;;;;;4996760;28;20017;-68
2022/01/18 10:15:03;;;;;;;15.35;8.30;;;7.70;82.00;;;;;;5008378;28;20037;-68
2022/01/18 10:17:33;;;;;;;14.52;7.68;;;7.70;82.90;;;;;;5003415;28;20558;-69
2022/01/18 10:20:06;;;;;;;14.40;7.60;;;7.90;83.50;;;;;;5005798;28;20030;-68
2022/01/18 10:22:41;;;;;;;15.43;8.18;;;7.90;82.70;;;;;;4996504;28;20041;-68
2022/01/18 10:25:19;;;;;;;13.95;7.65;;;7.80;82.10;;;;;;5005515;28;20030;-69
2022/01/18 10:27:49;;;;;;;16.02;8.48;;;7.80;82.30;;;;;;5007888;28;20045;-68
2022/01/18 10:30:22;;;;;;;15.35;8.40;;;7.70;82.10;;;;;;5005169;28;20068;-68
2022/01/18 10:33:12;;;;;;;16.95;9.50;;;7.60;82.40;;;;;;4999718;28;20436;-68
2022/01/18 10:36:03;;;;;;;13.07;7.60;;;7.60;83.30;;;;;;5006820;28;20058;-68
2022/01/18 10:38:28;;;;;;;15.90;8.50;;;7.80;83.50;;;;;;5001666;28;20030;-68
2022/01/18 10:40:55;;;;;;;17.10;7.50;;;7.90;82.70;;;;;;5001095;28;20046;-68
2022/01/18 10:43:29;;;;;;;13.85;7.78;;;7.80;82.10;;;;;;5009875;28;20025;-79
2022/01/18 10:46:14;;;;;;;15.23;8.05;;;7.80;82.20;;;;;;4999342;28;20045;-75
2022/01/18 10:48:48;;;;;;;12.20;6.95;;;7.80;82.30;;;;;;5007222;28;20037;-75
2022/01/18 10:51:27;;;;;;;;;;;7.90;82.10;;;;;;4996154;28;20027;-75
2022/01/18 10:54:00;;;;;;;10.35;5.85;;;7.80;81.90;;;;;;4998392;28;19964;-76
2022/01/18 10:56:41;;;;;;;13.43;6.40;;;7.80;82.10;;;;;;4996986;28;20038;-74
2022/01/18 10:59:08;;;;;;;10.43;5.72;;;7.80;81.80;;;;;;4996030;28;20022;-73
2022/01/18 11:01:34;;;;;;;12.57;6.75;;;7.90;81.80;;;;;;4996093;28;20034;-72
2022/01/18 11:04:11;;;;;;;8.73;5.25;;;7.90;82.00;;;;;;4993646;28;20045;-74
2022/01/18 11:06:38;;;;;;;10.50;6.07;;;8.10;82.10;;;;;;4993747;28;20029;-75
2022/01/18 11:09:10;;;;;;;11.23;5.82;;;8.30;82.40;;;;;;4996203;28;20041;-75
2022/01/18 11:11:47;;;;;;;8.48;5.30;;;8.40;81.80;;;;;;4996764;28;20080;-73
2022/01/18 11:14:19;;;;;;;9.50;5.07;;;8.40;80.20;;;;;;5006873;28;20026;-72
2022/01/18 11:16:47;;;;;;;7.80;4.63;;;8.50;81.40;;;;;;5012453;28;20026;-74
2022/01/18 11:21:49;;;;;;;8.45;5.07;;;8.60;79.50;;;;;;4996574;28;20496;-74
2022/01/18 11:24:16;;;;;;;7.18;4.60;;;8.90;80.00;;;;;;4995923;28;20066;-75
2022/01/18 11:26:45;;;;;;;7.35;4.43;;;9.50;81.40;;;;;;5007768;28;20022;-76
2022/01/18 11:29:16;;;;;;;7.15;4.45;;;9.80;77.10;;;;;;5006137;28;20033;-76
2022/01/18 11:31:45;;;;;;;7.18;4.22;;;9.80;75.80;;;;;;5006120;28;20089;-76
2022/01/18 11:34:16;;;;;;;10.40;5.45;;;9.90;78.20;;;;;;4997424;28;20064;-76
2022/01/18 11:36:48;;;;;;;9.07;5.15;;;10.00;75.00;;;;;;5008919;28;20030;-77
2022/01/18 11:39:17;;;;;;;7.70;5.03;;;9.90;74.30;;;;;;4995830;28;20527;-73
2022/01/18 11:41:43;;;;;;;8.82;5.03;;;9.80;74.90;;;;;;5000708;28;20034;-76
2022/01/18 11:44:12;;;;;;;9.13;5.60;;;9.80;75.60;;;;;;5001652;28;20030;-76
2022/01/18 11:46:45;;;;;;;8.68;5.00;;;10.20;75.80;;;;;;5009594;28;20033;-73
2022/01/18 11:49:23;;;;;;;10.07;5.20;;;10.30;75.80;;;;;;4997890;28;20022;-75
2022/01/18 11:52:00;;;;;;;6.70;4.65;;;10.60;75.80;;;;;;4995695;28;20022;-76
2022/01/18 11:54:56;;;;;;;9.57;5.38;;;10.80;75.00;;;;;;5010449;28;20065;-74
2022/01/18 11:57:27;;;;;;;7.65;4.85;;;10.90;74.50;;;;;;5010796;28;20026;-76
2022/01/18 12:00:22;;;;;;;8.95;4.93;;;11.40;73.90;;;;;;4998238;28;20101;-73
2022/01/18 12:02:50;;;;;;;7.65;5.10;;;11.50;75.30;;;;;;5004701;28;20030;-73
2022/01/18 12:05:20;;;;;;;8.63;5.38;;;11.70;71.50;;;;;;5001635;28;20085;-74
2022/01/18 12:07:51;;;;;;;7.93;5.00;;;11.50;71.10;;;;;;4996834;28;20545;-74
2022/01/18 12:10:38;;;;;;;9.55;5.28;;;11.10;71.30;;;;;;4997524;28;20440;-72
2022/01/18 12:13:11;;;;;;;10.65;5.95;;;11.00;72.30;;;;;;4997385;28;20026;-74
2022/01/18 12:15:38;;;;;;;8.23;5.05;;;10.90;70.60;;;;;;4995085;28;20050;-77
2022/01/18 12:18:12;;;;;;;8.43;5.43;;;11.20;73.30;;;;;;4996037;28;20699;-75
2022/01/18 12:20:40;;;;;;;8.35;5.40;;;11.20;71.10;;;;;;4996529;28;20076;-74
2022/01/18 12:23:06;;;;;;;8.77;5.40;;;10.90;69.80;;;;;;4995272;28;20389;-76
2022/01/18 12:25:36;;;;;;;10.20;5.88;;;10.50;70.60;;;;;;4996764;28;20030;-72
2022/01/18 12:28:46;;;;;;;7.18;5.00;;;10.20;71.30;;;;;;4996928;28;20076;-73
2022/01/18 12:31:53;;;;;;;10.50;5.30;;;10.10;72.30;;;;;;4997205;28;20449;-72
2022/01/18 12:34:31;;;;;;;8.35;5.35;;;9.80;73.20;;;;;;4996119;28;20076;-74
2022/01/18 12:37:27;;;;;;;7.95;5.00;;;9.60;73.80;;;;;;4996662;28;20060;-74
2022/01/18 12:39:57;;;;;;;9.32;5.75;;;9.50;74.40;;;;;;4996404;28;20401;-73
2022/01/18 12:45:22;;;;;;;7.30;5.00;;;9.30;75.30;;;;;;4998499;28;20113;-76
2022/01/18 12:48:02;;;;;;;8.85;4.93;;;9.20;75.20;;;;;;4997337;28;20057;-68
2022/01/18 12:50:49;;;;;;;9.40;4.97;;;9.00;75.50;;;;;;4996610;28;20109;-69
2022/01/18 12:53:24;;;;;;;7.40;4.63;;;9.00;76.00;;;;;;5002708;28;20515;-69
2022/01/18 12:55:57;;;;;;;7.38;4.65;;;9.00;75.90;;;;;;5004503;28;20031;-69
2022/01/18 12:58:27;;;;;;;9.50;5.00;;;8.80;75.80;;;;;;4996570;28;20076;-69
2022/01/18 13:00:59;;;;;;;9.35;5.10;;;8.70;76.20;;;;;;4996260;28;20041;-69
2022/01/18 13:03:38;;;;;;;7.85;4.40;;;8.70;76.60;;;;;;5009413;28;20018;-69
2022/01/18 13:06:09;;;;;;;7.07;4.35;;;8.80;77.40;;;;;;5003369;28;20111;-69
2022/01/18 13:08:53;;;;;;;7.93;5.30;;;8.80;77.30;;;;;;5008342;28;20447;-69
2022/01/18 13:11:24;;;;;;;8.35;4.43;;;8.80;77.50;;;;;;5000446;28;20101;-70
2022/01/18 13:13:59;;;;;;;8.13;5.10;;;8.90;77.40;;;;;;4996395;28;20026;-69
2022/01/18 13:27:16;;;;;;;6.95;4.50;;;8.90;76.60;;;;;;5011602;28;20076;-69
2022/01/18 13:29:43;;;;;;;8.10;4.55;;;8.80;76.80;;;;;;4999986;28;20018;-70
2022/01/18 13:32:25;;;;;;;7.03;4.43;;;8.90;77.40;;;;;;5001291;28;20493;-69
2022/01/18 13:34:55;;;;;;;9.88;5.30;;;8.90;77.20;;;;;;4994327;28;20109;-69
2022/01/18 13:37:26;;;;;;;7.95;4.63;;;8.90;76.80;;;;;;4995389;28;20042;-69
2022/01/18 13:39:55;;;;;;;8.55;5.60;;;8.90;77.10;;;;;;5000592;28;20108;-69
2022/01/18 13:42:33;;;;;;;7.60;4.80;;;8.80;77.40;;;;;;5008534;28;20052;-69
2022/01/18 13:45:09;;;;;;;8.02;5.45;;;8.80;77.50;;;;;;4995057;28;20029;-69
2022/01/18 13:47:41;;;;;;;8.70;5.38;;;8.70;77.10;;;;;;4995894;28;20062;-70
2022/01/18 13:50:26;;;;;;;7.30;4.60;;;8.80;78.20;;;;;;4999352;28;20034;-70
2022/01/18 13:52:58;;;;;;;7.47;4.68;;;8.90;78.30;;;;;;5007106;28;20046;-69
2022/01/18 13:55:28;;;;;;;7.25;4.30;;;9.00;78.30;;;;;;4997755;28;20061;-70
2022/01/18 13:57:56;;;;;;;7.28;4.50;;;9.00;78.10;;;;;;4995429;28;20566;-70
2022/01/18 14:00:24;;;;;;;7.18;4.18;;;9.10;77.90;;;;;;5008443;28;20025;-69
2022/01/18 14:02:50;;;;;;;9.68;5.38;;;9.10;78.10;;;;;;4998135;28;20066;-70
2022/01/18 14:05:18;;;;;;;7.97;4.97;;;9.20;78.10;;;;;;4997495;28;20057;-69
2022/01/18 14:07:44;;;;;;;7.72;4.90;;;9.30;78.10;;;;;;4997794;28;20168;-70
2022/01/18 14:10:10;;;;;;;9.57;5.03;;;9.30;77.70;;;;;;4995561;28;20109;-69
2022/01/18 14:12:36;;;;;;;8.40;5.03;;;9.30;77.70;;;;;;4995584;28;20025;-70
2022/01/18 14:15:02;;;;;;;7.93;5.32;;;9.40;78.00;;;;;;4996581;28;20050;-69
2022/01/18 14:17:27;;;;;;;12.00;5.55;;;9.30;77.20;;;;;;5005425;28;20029;-69
2022/01/18 14:20:12;;;;;;;11.13;6.32;;;9.30;77.40;;;;;;5004949;28;20041;-70
2022/01/18 14:22:40;;;;;;;9.45;5.97;;;9.20;76.90;;;;;;4997685;28;20022;-70
2022/01/18 14:25:08;;;;;;;7.03;4.82;;;9.20;77.60;;;;;;4994718;28;20508;-69